sensor_id;sensor_type;location;lat;lon;timestamp;pressure;altitude;pressure_sealevel;temperature;humidity
25855;BME280;13680;49.936;11.344;2023-05-19T00:02:07;97410.00;;;12.13;53.22
25855;BME280;13680;49.936;11.344;2023-05-19T00:04:33;97410.69;;;12.05;53.36
25855;BME280;13680;49.936;11.344;2023-05-19T00:06:59;97405.59;;;12.03;53.26
25855;BME280;13680;49.936;11.344;2023-05-19T00:09:25;97398.41;;;11.74;54.44
25855;BME280;13680;49.936;11.344;2023-05-19T00:11:51;97402.06;;;11.65;54.76
25855;BME280;13680;49.936;11.344;2023-05-19T00:14:16;97406.22;;;11.76;54.30
25855;BME280;13680;49.936;11.344;2023-05-19T00:16:42;97395.28;;;11.67;54.62
25855;BME280;13680;49.936;11.344;2023-05-19T00:19:07;97406.81;;;11.73;54.64
25855;BME280;13680;49.936;11.344;2023-05-19T00:21:36;97408.81;;;11.62;54.85
25855;BME280;13680;49.936;11.344;2023-05-19T00:24:03;97398.69;;;11.54;55.81
25855;BME280;13680;49.936;11.344;2023-05-19T00:26:28;97401.84;;;11.61;54.93
25855;BME280;13680;49.936;11.344;2023-05-19T00:28:54;97398.19;;;11.71;54.90
25855;BME280;13680;49.936;11.344;2023-05-19T00:31:19;97395.88;;;11.64;55.47
25855;BME280;13680;49.936;11.344;2023-05-19T00:33:45;97394.56;;;11.61;55.26
25855;BME280;13680;49.936;11.344;2023-05-19T00:36:10;97404.19;;;11.68;55.34
25855;BME280;13680;49.936;11.344;2023-05-19T00:38:36;97393.16;;;11.45;55.78
25855;BME280;13680;49.936;11.344;2023-05-19T00:41:04;97395.06;;;11.44;55.62
25855;BME280;13680;49.936;11.344;2023-05-19T00:43:29;97395.16;;;11.58;55.20
25855;BME280;13680;49.936;11.344;2023-05-19T00:45:55;97389.53;;;11.55;55.30
25855;BME280;13680;49.936;11.344;2023-05-19T00:48:21;97386.94;;;11.25;56.74
25855;BME280;13680;49.936;11.344;2023-05-19T00:50:48;97390.88;;;11.33;56.43
25855;BME280;13680;49.936;11.344;2023-05-19T00:53:16;97384.47;;;11.29;56.55
25855;BME280;13680;49.936;11.344;2023-05-19T00:55:42;97369.59;;;11.37;56.38
25855;BME280;13680;49.936;11.344;2023-05-19T00:58:08;97374.75;;;11.09;57.63
25855;BME280;13680;49.936;11.344;2023-05-19T01:00:34;97359.94;;;10.87;58.37
25855;BME280;13680;49.936;11.344;2023-05-19T01:03:01;97372.44;;;10.97;57.73
25855;BME280;13680;49.936;11.344;2023-05-19T01:05:27;97373.56;;;11.20;57.21
25855;BME280;13680;49.936;11.344;2023-05-19T01:07:54;97372.50;;;11.16;57.35
25855;BME280;13680;49.936;11.344;2023-05-19T01:10:21;97365.88;;;11.08;57.63
25855;BME280;13680;49.936;11.344;2023-05-19T01:12:47;97361.53;;;11.12;57.30
25855;BME280;13680;49.936;11.344;2023-05-19T01:15:13;97365.38;;;11.06;57.92
25855;BME280;13680;49.936;11.344;2023-05-19T01:17:54;97364.06;;;11.04;57.96
25855;BME280;13680;49.936;11.344;2023-05-19T01:20:37;97370.34;;;10.94;58.87
25855;BME280;13680;49.936;11.344;2023-05-19T01:23:11;97360.72;;;10.88;59.28
25855;BME280;13680;49.936;11.344;2023-05-19T01:30:56;97359.00;;;10.73;59.63
25855;BME280;13680;49.936;11.344;2023-05-19T01:33:23;97359.22;;;10.76;59.87
25855;BME280;13680;49.936;11.344;2023-05-19T01:35:50;97360.88;;;10.72;60.26
25855;BME280;13680;49.936;11.344;2023-05-19T01:38:16;97370.63;;;10.68;60.69
25855;BME280;13680;49.936;11.344;2023-05-19T01:40:43;97370.34;;;10.70;60.50
25855;BME280;13680;49.936;11.344;2023-05-19T01:43:14;97363.81;;;10.76;60.38
25855;BME280;13680;49.936;11.344;2023-05-19T01:45:40;97361.63;;;10.78;60.43
25855;BME280;13680;49.936;11.344;2023-05-19T01:48:06;97361.63;;;10.78;60.85
25855;BME280;13680;49.936;11.344;2023-05-19T01:50:32;97360.28;;;10.80;60.65
25855;BME280;13680;49.936;11.344;2023-05-19T01:52:57;97360.00;;;10.82;60.40
25855;BME280;13680;49.936;11.344;2023-05-19T01:55:23;97367.47;;;10.85;60.95
25855;BME280;13680;49.936;11.344;2023-05-19T02:05:24;97358.78;;;10.69;60.33
25855;BME280;13680;49.936;11.344;2023-05-19T02:08:05;97358.31;;;10.62;60.51
25855;BME280;13680;49.936;11.344;2023-05-19T02:10:35;97362.31;;;10.64;60.18
25855;BME280;13680;49.936;11.344;2023-05-19T02:13:03;97358.88;;;10.59;60.66
25855;BME280;13680;49.936;11.344;2023-05-19T02:15:37;97350.06;;;10.53;60.93
25855;BME280;13680;49.936;11.344;2023-05-19T02:18:05;97346.84;;;10.51;61.58
25855;BME280;13680;49.936;11.344;2023-05-19T02:20:33;97348.97;;;10.54;61.49
25855;BME280;13680;49.936;11.344;2023-05-19T02:22:58;97348.50;;;10.47;61.45
25855;BME280;13680;49.936;11.344;2023-05-19T02:25:25;97339.16;;;10.39;61.70
25855;BME280;13680;49.936;11.344;2023-05-19T02:27:51;97350.41;;;10.46;61.85
25855;BME280;13680;49.936;11.344;2023-05-19T02:30:16;97346.34;;;10.49;61.70
25855;BME280;13680;49.936;11.344;2023-05-19T02:32:42;97337.50;;;10.43;62.30
25855;BME280;13680;49.936;11.344;2023-05-19T02:35:11;97334.81;;;10.43;62.54
25855;BME280;13680;49.936;11.344;2023-05-19T02:37:36;97339.59;;;10.52;61.18
25855;BME280;13680;49.936;11.344;2023-05-19T02:40:02;97338.94;;;10.30;61.90
25855;BME280;13680;49.936;11.344;2023-05-19T02:42:28;97336.59;;;10.24;62.11
25855;BME280;13680;49.936;11.344;2023-05-19T02:44:53;97333.53;;;10.36;62.09
25855;BME280;13680;49.936;11.344;2023-05-19T02:47:19;97331.13;;;10.34;62.74
25855;BME280;13680;49.936;11.344;2023-05-19T02:49:44;97340.00;;;10.35;62.17
25855;BME280;13680;49.936;11.344;2023-05-19T02:52:10;97343.47;;;10.35;62.11
25855;BME280;13680;49.936;11.344;2023-05-19T02:54:36;97350.06;;;10.53;61.45
25855;BME280;13680;49.936;11.344;2023-05-19T02:57:01;97342.16;;;10.62;60.91
25855;BME280;13680;49.936;11.344;2023-05-19T02:59:27;97340.44;;;10.47;60.69
25855;BME280;13680;49.936;11.344;2023-05-19T03:02:01;97339.28;;;10.53;60.05
25855;BME280;13680;49.936;11.344;2023-05-19T03:04:27;97340.38;;;10.52;60.00
25855;BME280;13680;49.936;11.344;2023-05-19T03:06:53;97338.75;;;10.56;60.87
25855;BME280;13680;49.936;11.344;2023-05-19T03:09:19;97329.75;;;10.66;61.20
25855;BME280;13680;49.936;11.344;2023-05-19T03:11:44;97338.06;;;10.70;61.23
25855;BME280;13680;49.936;11.344;2023-05-19T03:14:10;97341.38;;;10.61;61.29
25855;BME280;13680;49.936;11.344;2023-05-19T03:16:39;97336.56;;;10.58;61.70
25855;BME280;13680;49.936;11.344;2023-05-19T03:19:07;97339.19;;;10.63;61.67
25855;BME280;13680;49.936;11.344;2023-05-19T03:21:33;97342.97;;;10.62;61.65
25855;BME280;13680;49.936;11.344;2023-05-19T03:24:00;97347.78;;;10.66;61.71
25855;BME280;13680;49.936;11.344;2023-05-19T03:26:25;97342.84;;;10.73;61.69
25855;BME280;13680;49.936;11.344;2023-05-19T03:28:51;97342.06;;;10.72;61.20
25855;BME280;13680;49.936;11.344;2023-05-19T03:31:16;97342.66;;;10.69;61.56
25855;BME280;13680;49.936;11.344;2023-05-19T03:33:42;97344.47;;;10.74;61.24
25855;BME280;13680;49.936;11.344;2023-05-19T03:36:07;97343.09;;;10.76;61.24
25855;BME280;13680;49.936;11.344;2023-05-19T03:38:32;97334.28;;;10.71;60.08
25855;BME280;13680;49.936;11.344;2023-05-19T03:40:58;97339.06;;;10.74;60.22
25855;BME280;13680;49.936;11.344;2023-05-19T03:43:23;97340.09;;;10.78;59.77
25855;BME280;13680;49.936;11.344;2023-05-19T03:45:48;97337.16;;;10.79;59.21
25855;BME280;13680;49.936;11.344;2023-05-19T03:48:14;97336.56;;;10.83;59.73
25855;BME280;13680;49.936;11.344;2023-05-19T03:50:40;97346.97;;;10.89;60.51
25855;BME280;13680;49.936;11.344;2023-05-19T03:53:06;97346.41;;;10.68;60.86
25855;BME280;13680;49.936;11.344;2023-05-19T03:55:32;97345.59;;;10.68;60.71
25855;BME280;13680;49.936;11.344;2023-05-19T03:57:57;97341.75;;;10.74;60.52
25855;BME280;13680;49.936;11.344;2023-05-19T04:00:23;97348.81;;;10.70;61.09
25855;BME280;13680;49.936;11.344;2023-05-19T04:02:48;97342.75;;;10.83;60.58
25855;BME280;13680;49.936;11.344;2023-05-19T04:05:13;97348.41;;;10.81;60.17
25855;BME280;13680;49.936;11.344;2023-05-19T04:07:39;97346.59;;;10.77;60.18
25855;BME280;13680;49.936;11.344;2023-05-19T04:10:05;97350.13;;;10.96;59.29
25855;BME280;13680;49.936;11.344;2023-05-19T04:12:31;97350.66;;;10.99;59.55
25855;BME280;13680;49.936;11.344;2023-05-19T04:14:57;97345.47;;;11.02;58.73
25855;BME280;13680;49.936;11.344;2023-05-19T04:17:22;97353.16;;;11.14;58.23
25855;BME280;13680;49.936;11.344;2023-05-19T04:19:50;97346.03;;;11.23;58.38
25855;BME280;13680;49.936;11.344;2023-05-19T04:22:15;97345.13;;;11.33;57.81
25855;BME280;13680;49.936;11.344;2023-05-19T04:24:41;97355.13;;;11.27;58.08
25855;BME280;13680;49.936;11.344;2023-05-19T04:27:06;97356.53;;;11.44;57.56
25855;BME280;13680;49.936;11.344;2023-05-19T04:29:36;97364.28;;;11.26;58.54
25855;BME280;13680;49.936;11.344;2023-05-19T04:32:01;97355.91;;;11.09;58.52
25855;BME280;13680;49.936;11.344;2023-05-19T04:34:30;97362.19;;;11.23;58.52
25855;BME280;13680;49.936;11.344;2023-05-19T04:36:56;97357.28;;;11.30;58.39
25855;BME280;13680;49.936;11.344;2023-05-19T04:39:21;97353.59;;;11.21;58.32
25855;BME280;13680;49.936;11.344;2023-05-19T04:41:46;97356.53;;;11.44;57.62
25855;BME280;13680;49.936;11.344;2023-05-19T04:44:12;97353.28;;;11.66;57.48
25855;BME280;13680;49.936;11.344;2023-05-19T04:46:37;97356.91;;;11.75;56.40
25855;BME280;13680;49.936;11.344;2023-05-19T04:49:03;97356.25;;;11.45;57.75
25855;BME280;13680;49.936;11.344;2023-05-19T04:51:28;97361.38;;;11.47;57.62
25855;BME280;13680;49.936;11.344;2023-05-19T04:53:58;97357.44;;;11.58;57.25
25855;BME280;13680;49.936;11.344;2023-05-19T04:56:23;97361.94;;;11.44;57.16
25855;BME280;13680;49.936;11.344;2023-05-19T04:58:49;97361.38;;;11.66;56.96
25855;BME280;13680;49.936;11.344;2023-05-19T05:01:14;97357.28;;;11.69;57.17
25855;BME280;13680;49.936;11.344;2023-05-19T05:03:41;97358.28;;;11.92;57.17
25855;BME280;13680;49.936;11.344;2023-05-19T05:06:06;97355.16;;;11.66;56.96
25855;BME280;13680;49.936;11.344;2023-05-19T05:08:32;97360.63;;;11.60;57.09
25855;BME280;13680;49.936;11.344;2023-05-19T05:10:58;97363.09;;;11.76;57.27
25855;BME280;13680;49.936;11.344;2023-05-19T05:13:24;97361.28;;;11.52;57.33
25855;BME280;13680;49.936;11.344;2023-05-19T05:15:50;97359.25;;;11.82;57.21
25855;BME280;13680;49.936;11.344;2023-05-19T05:18:18;97353.41;;;11.94;56.09
25855;BME280;13680;49.936;11.344;2023-05-19T05:20:44;97344.91;;;12.06;56.05
25855;BME280;13680;49.936;11.344;2023-05-19T05:23:11;97345.47;;;12.03;56.16
25855;BME280;13680;49.936;11.344;2023-05-19T05:25:40;97349.53;;;12.19;55.89
25855;BME280;13680;49.936;11.344;2023-05-19T05:28:05;97348.16;;;12.36;55.41
25855;BME280;13680;49.936;11.344;2023-05-19T05:30:32;97353.25;;;12.37;55.65
25855;BME280;13680;49.936;11.344;2023-05-19T05:32:58;97350.09;;;12.35;55.91
25855;BME280;13680;49.936;11.344;2023-05-19T05:35:23;97352.81;;;12.49;54.56
25855;BME280;13680;49.936;11.344;2023-05-19T05:37:49;97345.44;;;12.69;55.19
25855;BME280;13680;49.936;11.344;2023-05-19T05:40:14;97351.44;;;12.66;55.49
25855;BME280;13680;49.936;11.344;2023-05-19T05:42:40;97349.03;;;12.50;55.11
25855;BME280;13680;49.936;11.344;2023-05-19T05:45:06;97350.00;;;12.40;55.73
25855;BME280;13680;49.936;11.344;2023-05-19T05:47:31;97356.03;;;12.79;54.96
25855;BME280;13680;49.936;11.344;2023-05-19T05:49:57;97349.41;;;12.57;55.04
25855;BME280;13680;49.936;11.344;2023-05-19T05:52:27;97351.44;;;12.93;54.65
25855;BME280;13680;49.936;11.344;2023-05-19T05:54:53;97356.25;;;12.97;55.27
25855;BME280;13680;49.936;11.344;2023-05-19T05:57:19;97360.47;;;12.42;55.74
25855;BME280;13680;49.936;11.344;2023-05-19T05:59:44;97361.34;;;12.84;54.85
25855;BME280;13680;49.936;11.344;2023-05-19T06:02:11;97357.94;;;12.65;55.87
25855;BME280;13680;49.936;11.344;2023-05-19T06:04:36;97366.13;;;12.73;55.17
25855;BME280;13680;49.936;11.344;2023-05-19T06:07:02;97368.75;;;12.92;54.76
25855;BME280;13680;49.936;11.344;2023-05-19T06:09:27;97358.13;;;12.96;55.20
25855;BME280;13680;49.936;11.344;2023-05-19T06:11:54;97365.75;;;13.22;55.52
25855;BME280;13680;49.936;11.344;2023-05-19T06:14:19;97357.53;;;13.55;55.21
25855;BME280;13680;49.936;11.344;2023-05-19T06:16:45;97359.81;;;13.62;54.25
25855;BME280;13680;49.936;11.344;2023-05-19T06:19:12;97357.19;;;13.70;54.29
25855;BME280;13680;49.936;11.344;2023-05-19T06:21:37;97355.16;;;13.76;53.79
25855;BME280;13680;49.936;11.344;2023-05-19T06:24:02;97352.09;;;13.91;53.53
25855;BME280;13680;49.936;11.344;2023-05-19T06:26:28;97357.38;;;13.97;53.47
25855;BME280;13680;49.936;11.344;2023-05-19T06:28:53;97358.41;;;14.01;51.60
25855;BME280;13680;49.936;11.344;2023-05-19T06:31:18;97358.88;;;14.03;52.64
25855;BME280;13680;49.936;11.344;2023-05-19T06:33:44;97369.31;;;14.18;51.66
25855;BME280;13680;49.936;11.344;2023-05-19T06:36:09;97354.69;;;14.42;52.07
25855;BME280;13680;49.936;11.344;2023-05-19T06:38:34;97354.59;;;14.56;51.47
25855;BME280;13680;49.936;11.344;2023-05-19T06:41:00;97365.13;;;14.35;50.67
25855;BME280;13680;49.936;11.344;2023-05-19T06:43:25;97358.56;;;14.81;50.37
25855;BME280;13680;49.936;11.344;2023-05-19T06:45:51;97355.50;;;15.23;50.23
25855;BME280;13680;49.936;11.344;2023-05-19T06:48:16;97352.06;;;15.40;50.10
25855;BME280;13680;49.936;11.344;2023-05-19T06:50:41;97350.34;;;15.62;50.38
25855;BME280;13680;49.936;11.344;2023-05-19T06:53:07;97346.94;;;15.47;48.60
25855;BME280;13680;49.936;11.344;2023-05-19T06:55:32;97349.91;;;15.86;47.91
25855;BME280;13680;49.936;11.344;2023-05-19T06:57:57;97341.75;;;15.95;48.17
25855;BME280;13680;49.936;11.344;2023-05-19T07:00:23;97347.19;;;15.95;48.49
25855;BME280;13680;49.936;11.344;2023-05-19T07:02:48;97346.09;;;15.20;48.32
25855;BME280;13680;49.936;11.344;2023-05-19T07:05:13;97344.38;;;15.33;47.94
25855;BME280;13680;49.936;11.344;2023-05-19T07:07:39;97340.28;;;15.62;47.82
25855;BME280;13680;49.936;11.344;2023-05-19T07:10:06;97343.75;;;15.36;48.60
25855;BME280;13680;49.936;11.344;2023-05-19T07:12:31;97334.22;;;15.74;46.50
25855;BME280;13680;49.936;11.344;2023-05-19T07:14:56;97337.13;;;15.86;45.68
25855;BME280;13680;49.936;11.344;2023-05-19T07:17:22;97331.19;;;16.19;46.34
25855;BME280;13680;49.936;11.344;2023-05-19T07:19:47;97329.41;;;15.53;46.39
25855;BME280;13680;49.936;11.344;2023-05-19T07:22:12;97327.66;;;15.58;46.51
25855;BME280;13680;49.936;11.344;2023-05-19T07:24:38;97329.81;;;15.87;46.51
25855;BME280;13680;49.936;11.344;2023-05-19T07:27:03;97319.41;;;15.98;45.66
25855;BME280;13680;49.936;11.344;2023-05-19T07:29:29;97316.34;;;16.17;45.40
25855;BME280;13680;49.936;11.344;2023-05-19T07:31:54;97321.94;;;16.20;44.97
25855;BME280;13680;49.936;11.344;2023-05-19T07:34:22;97320.06;;;15.95;44.36
25855;BME280;13680;49.936;11.344;2023-05-19T07:36:48;97327.38;;;16.12;44.40
25855;BME280;13680;49.936;11.344;2023-05-19T07:39:13;97317.78;;;16.71;42.71
25855;BME280;13680;49.936;11.344;2023-05-19T07:41:38;97315.78;;;16.89;42.68
25855;BME280;13680;49.936;11.344;2023-05-19T07:44:04;97308.22;;;17.03;42.94
25855;BME280;13680;49.936;11.344;2023-05-19T07:46:41;97308.47;;;17.19;42.44
25855;BME280;13680;49.936;11.344;2023-05-19T07:49:06;97309.91;;;16.87;42.16
25855;BME280;13680;49.936;11.344;2023-05-19T07:51:31;97312.63;;;16.87;42.46
25855;BME280;13680;49.936;11.344;2023-05-19T07:53:57;97305.00;;;16.71;43.41
25855;BME280;13680;49.936;11.344;2023-05-19T07:56:23;97306.66;;;17.02;42.40
25855;BME280;13680;49.936;11.344;2023-05-19T07:58:49;97307.06;;;16.74;43.61
25855;BME280;13680;49.936;11.344;2023-05-19T08:01:15;97300.47;;;17.65;41.60
25855;BME280;13680;49.936;11.344;2023-05-19T08:03:40;97310.03;;;17.29;43.16
25855;BME280;13680;49.936;11.344;2023-05-19T08:06:06;97304.31;;;17.85;41.41
25855;BME280;13680;49.936;11.344;2023-05-19T08:08:31;97308.50;;;17.82;40.72
25855;BME280;13680;49.936;11.344;2023-05-19T08:11:01;97297.97;;;17.81;41.76
25855;BME280;13680;49.936;11.344;2023-05-19T08:13:27;97301.53;;;17.73;42.28
25855;BME280;13680;49.936;11.344;2023-05-19T08:15:52;97293.31;;;18.03;41.98
25855;BME280;13680;49.936;11.344;2023-05-19T08:18:23;97281.50;;;18.57;40.47
25855;BME280;13680;49.936;11.344;2023-05-19T08:20:49;97282.19;;;18.54;40.13
25855;BME280;13680;49.936;11.344;2023-05-19T08:23:14;97279.81;;;18.89;38.78
25855;BME280;13680;49.936;11.344;2023-05-19T08:25:39;97282.31;;;18.82;39.04
25855;BME280;13680;49.936;11.344;2023-05-19T08:28:05;97285.50;;;18.72;40.38
25855;BME280;13680;49.936;11.344;2023-05-19T08:30:31;97277.75;;;18.49;40.86
25855;BME280;13680;49.936;11.344;2023-05-19T08:32:56;97282.88;;;18.05;40.43
25855;BME280;13680;49.936;11.344;2023-05-19T08:35:22;97280.41;;;18.12;40.90
25855;BME280;13680;49.936;11.344;2023-05-19T08:37:47;97264.31;;;18.19;40.57
25855;BME280;13680;49.936;11.344;2023-05-19T08:40:16;97257.69;;;18.66;40.05
25855;BME280;13680;49.936;11.344;2023-05-19T08:42:42;97257.38;;;18.92;39.98
25855;BME280;13680;49.936;11.344;2023-05-19T08:45:07;97258.28;;;18.96;39.95
25855;BME280;13680;49.936;11.344;2023-05-19T08:47:33;97266.09;;;18.73;39.88
25855;BME280;13680;49.936;11.344;2023-05-19T08:50:06;97259.41;;;18.83;38.99
25855;BME280;13680;49.936;11.344;2023-05-19T08:55:34;97242.28;;;18.95;39.28
25855;BME280;13680;49.936;11.344;2023-05-19T08:58:02;97244.19;;;19.48;39.45
25855;BME280;13680;49.936;11.344;2023-05-19T09:00:28;97238.00;;;19.91;36.64
25855;BME280;13680;49.936;11.344;2023-05-19T09:02:54;97252.28;;;18.91;38.46
25855;BME280;13680;49.936;11.344;2023-05-19T09:05:19;97241.22;;;19.53;37.06
25855;BME280;13680;49.936;11.344;2023-05-19T09:07:45;97239.38;;;20.14;37.68
25855;BME280;13680;49.936;11.344;2023-05-19T09:10:12;97240.72;;;19.63;37.61
25855;BME280;13680;49.936;11.344;2023-05-19T09:12:43;97229.88;;;19.10;36.92
25855;BME280;13680;49.936;11.344;2023-05-19T09:15:16;97232.25;;;18.87;38.37
25855;BME280;13680;49.936;11.344;2023-05-19T09:17:44;97230.75;;;18.89;38.20
25855;BME280;13680;49.936;11.344;2023-05-19T09:20:10;97232.38;;;19.03;37.51
25855;BME280;13680;49.936;11.344;2023-05-19T09:22:45;97236.47;;;18.72;38.05
25855;BME280;13680;49.936;11.344;2023-05-19T09:25:37;97222.72;;;18.80;37.89
25855;BME280;13680;49.936;11.344;2023-05-19T09:28:10;97228.28;;;18.59;38.74
25855;BME280;13680;49.936;11.344;2023-05-19T09:30:36;97218.75;;;18.90;37.55
25855;BME280;13680;49.936;11.344;2023-05-19T09:33:01;97208.44;;;18.96;36.31
25855;BME280;13680;49.936;11.344;2023-05-19T09:35:28;97211.81;;;18.93;36.35
25855;BME280;13680;49.936;11.344;2023-05-19T09:37:53;97200.94;;;18.80;36.37
25855;BME280;13680;49.936;11.344;2023-05-19T09:40:19;97215.78;;;19.20;37.83
25855;BME280;13680;49.936;11.344;2023-05-19T09:42:44;97207.16;;;19.46;35.96
25855;BME280;13680;49.936;11.344;2023-05-19T09:45:10;97211.22;;;19.53;36.61
25855;BME280;13680;49.936;11.344;2023-05-19T09:47:36;97204.41;;;20.03;36.84
25855;BME280;13680;49.936;11.344;2023-05-19T09:50:07;97207.25;;;19.50;37.14
25855;BME280;13680;49.936;11.344;2023-05-19T09:52:34;97205.16;;;19.59;36.34
25855;BME280;13680;49.936;11.344;2023-05-19T09:55:00;97200.44;;;19.44;37.01
25855;BME280;13680;49.936;11.344;2023-05-19T09:57:32;97195.44;;;19.74;36.56
25855;BME280;13680;49.936;11.344;2023-05-19T09:59:59;97192.69;;;20.03;36.75
25855;BME280;13680;49.936;11.344;2023-05-19T10:02:25;97199.03;;;19.78;35.53
25855;BME280;13680;49.936;11.344;2023-05-19T10:04:51;97187.41;;;20.10;34.60
25855;BME280;13680;49.936;11.344;2023-05-19T10:07:18;97181.97;;;20.26;33.55
25855;BME280;13680;49.936;11.344;2023-05-19T10:09:43;97183.03;;;20.21;34.29
25855;BME280;13680;49.936;11.344;2023-05-19T10:12:09;97184.66;;;20.90;32.02
25855;BME280;13680;49.936;11.344;2023-05-19T10:14:35;97191.53;;;21.58;32.67
25855;BME280;13680;49.936;11.344;2023-05-19T10:17:01;97186.31;;;22.16;31.74
25855;BME280;13680;49.936;11.344;2023-05-19T10:19:28;97173.53;;;22.00;32.39
25855;BME280;13680;49.936;11.344;2023-05-19T10:21:54;97172.84;;;21.84;32.49
25855;BME280;13680;49.936;11.344;2023-05-19T10:24:20;97185.97;;;21.35;31.01
25855;BME280;13680;49.936;11.344;2023-05-19T10:26:54;97176.47;;;21.49;30.27
25855;BME280;13680;49.936;11.344;2023-05-19T10:29:24;97183.59;;;21.53;29.72
25855;BME280;13680;49.936;11.344;2023-05-19T10:31:52;97182.72;;;21.88;29.84
25855;BME280;13680;49.936;11.344;2023-05-19T10:34:35;97175.41;;;21.96;29.62
25855;BME280;13680;49.936;11.344;2023-05-19T10:39:51;97172.19;;;22.60;28.18
25855;BME280;13680;49.936;11.344;2023-05-19T10:42:39;97163.56;;;22.12;27.94
25855;BME280;13680;49.936;11.344;2023-05-19T10:45:17;97157.16;;;22.27;27.99
25855;BME280;13680;49.936;11.344;2023-05-19T10:47:44;97149.25;;;22.22;27.76
25855;BME280;13680;49.936;11.344;2023-05-19T10:50:10;97147.97;;;22.16;27.75
25855;BME280;13680;49.936;11.344;2023-05-19T10:52:36;97157.81;;;21.74;31.29
25855;BME280;13680;49.936;11.344;2023-05-19T10:55:02;97155.03;;;22.17;29.33
25855;BME280;13680;49.936;11.344;2023-05-19T10:57:29;97158.44;;;21.87;28.73
25855;BME280;13680;49.936;11.344;2023-05-19T10:59:58;97169.63;;;21.78;30.82
25855;BME280;13680;49.936;11.344;2023-05-19T11:02:45;97156.38;;;21.21;29.33
25855;BME280;13680;49.936;11.344;2023-05-19T11:05:12;97156.66;;;20.77;29.71
25855;BME280;13680;49.936;11.344;2023-05-19T11:07:55;97151.97;;;20.97;30.14
25855;BME280;13680;49.936;11.344;2023-05-19T11:10:26;97141.34;;;21.12;28.95
25855;BME280;13680;49.936;11.344;2023-05-19T11:12:51;97153.69;;;20.02;31.29
25855;BME280;13680;49.936;11.344;2023-05-19T11:15:17;97146.59;;;21.60;29.88
25855;BME280;13680;49.936;11.344;2023-05-19T11:17:47;97120.34;;;22.01;27.20
25855;BME280;13680;49.936;11.344;2023-05-19T11:20:26;97146.88;;;22.44;28.51
25855;BME280;13680;49.936;11.344;2023-05-19T11:23:14;97138.44;;;22.83;28.65
25855;BME280;13680;49.936;11.344;2023-05-19T11:25:48;97128.31;;;23.17;27.51
25855;BME280;13680;49.936;11.344;2023-05-19T11:28:15;97127.88;;;23.49;26.60
25855;BME280;13680;49.936;11.344;2023-05-19T11:30:41;97116.25;;;23.26;27.45
25855;BME280;13680;49.936;11.344;2023-05-19T11:33:08;97113.59;;;23.70;26.73
25855;BME280;13680;49.936;11.344;2023-05-19T11:35:33;97106.22;;;24.23;27.47
25855;BME280;13680;49.936;11.344;2023-05-19T11:37:59;97118.13;;;23.93;26.99
25855;BME280;13680;49.936;11.344;2023-05-19T11:40:25;97115.13;;;24.09;26.36
25855;BME280;13680;49.936;11.344;2023-05-19T11:42:51;97120.69;;;23.75;27.71
25855;BME280;13680;49.936;11.344;2023-05-19T11:45:16;97103.63;;;24.45;26.09
25855;BME280;13680;49.936;11.344;2023-05-19T11:47:45;97114.50;;;24.90;26.79
25855;BME280;13680;49.936;11.344;2023-05-19T11:50:10;97125.84;;;24.74;25.98
25855;BME280;13680;49.936;11.344;2023-05-19T11:52:37;97109.28;;;24.66;25.17
25855;BME280;13680;49.936;11.344;2023-05-19T11:55:02;97099.19;;;23.81;26.72
25855;BME280;13680;49.936;11.344;2023-05-19T11:57:27;97108.19;;;24.26;27.48
25855;BME280;13680;49.936;11.344;2023-05-19T11:59:53;97119.50;;;23.73;27.78
25855;BME280;13680;49.936;11.344;2023-05-19T12:02:22;97111.53;;;23.60;28.88
25855;BME280;13680;49.936;11.344;2023-05-19T12:04:52;97100.97;;;23.28;30.02
25855;BME280;13680;49.936;11.344;2023-05-19T12:07:21;97101.47;;;23.03;29.86
25855;BME280;13680;49.936;11.344;2023-05-19T12:09:48;97095.03;;;23.98;30.36
25855;BME280;13680;49.936;11.344;2023-05-19T12:12:15;97089.69;;;23.33;30.10
25855;BME280;13680;49.936;11.344;2023-05-19T12:14:41;97098.69;;;24.13;28.96
25855;BME280;13680;49.936;11.344;2023-05-19T12:17:14;97089.16;;;23.99;28.61
25855;BME280;13680;49.936;11.344;2023-05-19T12:19:42;97092.31;;;24.01;29.36
25855;BME280;13680;49.936;11.344;2023-05-19T12:22:08;97096.63;;;23.61;30.48
25855;BME280;13680;49.936;11.344;2023-05-19T12:24:35;97109.88;;;23.18;31.27
25855;BME280;13680;49.936;11.344;2023-05-19T12:27:22;97099.69;;;23.15;30.81
25855;BME280;13680;49.936;11.344;2023-05-19T12:29:52;97106.78;;;23.19;30.51
25855;BME280;13680;49.936;11.344;2023-05-19T12:32:25;97106.81;;;22.62;30.22
25855;BME280;13680;49.936;11.344;2023-05-19T12:34:51;97105.22;;;22.61;31.03
25855;BME280;13680;49.936;11.344;2023-05-19T12:37:17;97102.44;;;22.58;31.63
25855;BME280;13680;49.936;11.344;2023-05-19T12:39:44;97111.78;;;22.30;31.28
25855;BME280;13680;49.936;11.344;2023-05-19T12:42:10;97096.25;;;22.95;31.26
25855;BME280;13680;49.936;11.344;2023-05-19T12:44:47;97096.78;;;21.97;32.36
25855;BME280;13680;49.936;11.344;2023-05-19T12:47:14;97101.56;;;22.00;32.14
25855;BME280;13680;49.936;11.344;2023-05-19T12:49:59;97097.47;;;22.40;32.19
25855;BME280;13680;49.936;11.344;2023-05-19T12:52:26;97094.59;;;21.83;33.54
25855;BME280;13680;49.936;11.344;2023-05-19T12:55:01;97101.91;;;22.21;33.92
25855;BME280;13680;49.936;11.344;2023-05-19T12:57:28;97083.56;;;22.52;33.31
25855;BME280;13680;49.936;11.344;2023-05-19T13:00:07;97088.19;;;23.05;33.14
25855;BME280;13680;49.936;11.344;2023-05-19T13:05:19;97074.47;;;23.81;31.53
25855;BME280;13680;49.936;11.344;2023-05-19T13:07:54;97076.19;;;24.52;29.65
25855;BME280;13680;49.936;11.344;2023-05-19T13:10:20;97064.69;;;25.13;28.63
25855;BME280;13680;49.936;11.344;2023-05-19T13:12:46;97060.47;;;25.48;28.63